Aeroporto :
LOGIN :

Iscrizione | Disclaimer

   EN    FR    IT 

 










Sommario :    VFR   VFR Marginale   IFR   IFR Intensivo   IFR Molto Intensivo
Visibilità : 
Base nubi : 
>= 8 km
>= 3000ft
5 / 8 km
1000 / 3000 ft
1500m / 5 km
500 / 1000 ft
800 / 1500m
200 / 500 ft
< 800m
< 200 ft
Simboli :   Temporali  Nebbia  Neve Forte  Precipitazioni Forti  Vento > 20 kt
SIGMETs :   Varie  Temporali  Ghiacco  Turbolenza  Onda orograficha  Ceneri Vulcaniche






- Altitudine del aeroporto : 97 ft
- Codice IATA : EBJ


EKEB - Esbjerg

ULTIMO METAR :
  • 080920Z AUTO 18011KT 9999 SCT057/// 14/05 Q1026

METARs OBSOLETI :
  • 080850Z AUTO 17007KT 9999 BKN057/// 13/05 Q1026
  • 080820Z AUTO 16009KT 9999 BKN057/// 12/04 Q1027
  • 080750Z AUTO 16008KT 9999 BKN056/// 11/03 Q1027
  • 080720Z AUTO 16008KT 9999 NCD 09/03 Q1027
  • 080650Z AUTO 15006KT 9999 NCD 08/02 Q1028

TAF TAF EKEB
Valido dal 08 a 09 ore il 08 a 18 ore UTC


080823Z 0809/0818 19010KT CAVOK
BECMG 0814/0816 26007KT



MetMap, La meteo Aeronautica in un colpo d'occhio ! - Copyright ORBIFLY Dicembre 2007 - Disclaimer

ORBIFLY MET'MAP TEAM :

Programmazione e sviluppo : Alexandra Zaïnal
Concezione : Baudouin d'Aumeries
Aiuto per la programmazione : Marc-Olivier Méhu
Supporto tecnico e logistico : Manuel Goepfert
Aiuto per la traduzione : Arnaldo La Scala

Contatto : metmap@orbifly.com




FONTI E CREDITI :

   NOAA